Time;durP1;ratioP1;P1;durP2;ratioP2;P2;SDS_P1;SDS_P2;PMS_P1;PMS_P2;Temp;Humidity;BMP_temperature;BMP_pressure;BME280_temperature;BME280_humidity;BME280_pressure;Samples;Min_cycle;Max_cycle;Signal;HPM_P1;HPM_P2
2022/01/11 00:01:11;;;;;;;7.15;3.88;;;7.30;99.90;;;;;;5096178;27;20055;-82
2022/01/11 00:03:40;;;;;;;5.80;3.65;;;8.20;99.90;;;;;;5097801;27;20415;-82
2022/01/11 00:08:59;;;;;;;6.28;3.50;;;6.30;99.90;;;;;;5114404;27;20588;-82
2022/01/11 00:11:45;;;;;;;7.13;3.88;;;6.30;99.90;;;;;;5108958;27;20586;-82
2022/01/11 00:14:17;;;;;;;6.85;3.28;;;6.60;99.90;;;;;;5107283;27;20127;-81
2022/01/11 00:17:08;;;;;;;8.38;3.47;;;5.10;99.90;;;;;;5092283;27;20492;-82
2022/01/11 00:19:58;;;;;;;6.30;3.10;;;6.40;99.90;;;;;;5107605;27;20055;-81
2022/01/11 00:22:30;;;;;;;5.18;3.80;;;6.40;99.90;;;;;;5090529;27;20108;-82
2022/01/11 00:25:13;;;;;;;6.80;3.78;;;7.00;99.90;;;;;;5089606;27;20048;-82
2022/01/11 00:27:57;;;;;;;7.47;3.63;;;6.30;99.90;;;;;;5091143;27;20047;-82
2022/01/11 00:30:36;;;;;;;4.63;3.08;;;6.00;99.90;;;;;;5089449;27;20135;-81
2022/01/11 00:33:16;;;;;;;10.77;4.28;;;7.00;99.90;;;;;;5094759;27;20504;-82
2022/01/11 00:35:59;;;;;;;8.57;4.40;;;5.50;99.90;;;;;;5094016;27;20363;-82
2022/01/11 00:38:43;;;;;;;8.55;3.50;;;5.60;99.90;;;;;;5112173;27;20530;-81
2022/01/11 00:41:17;;;;;;;5.35;3.75;;;7.40;99.90;;;;;;5113869;27;20652;-82
2022/01/11 00:46:52;;;;;;;7.57;3.72;;;6.40;99.90;;;;;;5071758;28;20036;-82
2022/01/11 00:49:41;;;;;;;;;;;;;;;;;;;;;
2022/01/11 00:52:22;;;;;;;7.28;3.72;;;7.30;99.90;;;;;;5072399;28;45767;-82
2022/01/11 00:55:00;;;;;;;10.18;4.97;;;6.50;99.90;;;;;;5052507;28;20041;-81
2022/01/11 00:58:07;;;;;;;5.40;2.75;;;6.30;99.90;;;;;;5075917;28;20569;-81
2022/01/11 01:00:42;;;;;;;9.13;4.32;;;7.80;99.90;;;;;;5054800;28;20094;-81
2022/01/11 01:03:20;;;;;;;11.90;3.88;;;6.20;99.90;;;;;;5053503;28;20570;-82
2022/01/11 01:06:11;;;;;;;8.13;3.78;;;5.60;99.90;;;;;;5074822;28;20048;-81
2022/01/11 01:08:42;;;;;;;7.80;4.15;;;6.00;99.90;;;;;;5045635;28;20049;-81
2022/01/11 01:11:16;;;;;;;8.55;4.63;;;6.60;99.90;;;;;;5060686;28;20044;-81
2022/01/11 01:14:01;;;;;;;8.63;3.63;;;7.00;99.90;;;;;;5062412;27;20044;-82
2022/01/11 01:16:47;;;;;;;9.43;3.97;;;6.10;99.90;;;;;;5097621;27;20055;-82
2022/01/11 01:19:26;;;;;;;10.77;3.35;;;6.30;99.90;;;;;;5099180;27;20036;-82
2022/01/11 01:22:08;;;;;;;8.02;4.05;;;5.80;99.90;;;;;;5105866;27;20286;-81
2022/01/11 01:24:46;;;;;;;6.78;3.63;;;7.00;99.90;;;;;;5099064;27;20055;-78
2022/01/11 01:27:25;;;;;;;8.43;3.72;;;6.00;99.90;;;;;;5096975;27;20051;-78
2022/01/11 01:29:54;;;;;;;7.93;3.78;;;6.20;99.90;;;;;;5093039;27;20130;-78
2022/01/11 01:32:25;;;;;;;7.10;3.63;;;7.60;99.90;;;;;;5102384;27;20051;-77
2022/01/11 01:35:18;;;;;;;6.72;4.22;;;7.20;99.90;;;;;;5098351;27;20058;-78
2022/01/11 01:38:04;;;;;;;8.82;3.50;;;5.30;99.90;;;;;;5093860;27;20048;-77
2022/01/11 01:40:40;;;;;;;7.35;3.97;;;6.20;99.90;;;;;;5111287;27;20044;-78
2022/01/11 01:43:20;;;;;;;4.82;2.80;;;6.70;99.90;;;;;;5096188;27;20044;-76
2022/01/11 01:45:58;;;;;;;11.82;3.75;;;6.30;99.90;;;;;;5087688;27;20048;-77
2022/01/11 01:48:28;;;;;;;6.68;3.22;;;6.90;99.90;;;;;;5112465;27;20097;-77
2022/01/11 01:51:00;;;;;;;6.55;4.00;;;6.20;99.90;;;;;;5094517;27;20070;-77
2022/01/11 01:53:37;;;;;;;8.70;2.72;;;6.50;99.90;;;;;;5098728;27;20941;-77
2022/01/11 01:56:27;;;;;;;4.85;3.17;;;6.10;99.90;;;;;;5099842;27;20123;-77
2022/01/11 01:58:59;;;;;;;7.55;3.38;;;6.30;99.90;;;;;;5091504;27;20050;-78
2022/01/11 02:01:38;;;;;;;;;;;;;;;;;;;;;
2022/01/11 02:04:31;;;;;;;8.00;4.50;;;6.70;99.90;;;;;;5101892;27;38455;-77
2022/01/11 02:07:08;;;;;;;6.80;3.58;;;7.10;99.90;;;;;;5101728;27;20257;-78
2022/01/11 02:10:09;;;;;;;6.00;3.10;;;6.60;99.90;;;;;;5117389;27;20047;-77
2022/01/11 02:12:43;;;;;;;7.28;3.63;;;6.40;99.90;;;;;;5096609;27;20043;-78
2022/01/11 02:15:15;;;;;;;8.07;3.67;;;5.00;99.90;;;;;;5098355;27;20043;-77
2022/01/11 02:18:09;;;;;;;6.68;3.47;;;6.40;99.90;;;;;;5098921;27;20048;-77
2022/01/11 02:20:50;;;;;;;5.85;3.45;;;7.00;99.90;;;;;;5120851;27;20043;-78
2022/01/11 02:23:50;;;;;;;;;;;;;;;;;;;;;
2022/01/11 02:26:43;;;;;;;9.70;3.90;;;6.60;99.90;;;;;;5120234;27;38725;-78
2022/01/11 02:29:17;;;;;;;7.72;3.10;;;6.10;99.90;;;;;;5104116;27;20551;-77
2022/01/11 02:31:54;;;;;;;6.88;3.63;;;6.50;99.90;;;;;;5099455;27;20054;-77
2022/01/11 02:34:51;;;;;;;8.68;3.85;;;6.20;99.90;;;;;;5118760;27;20031;-77
2022/01/11 02:37:28;;;;;;;7.63;3.25;;;6.40;99.90;;;;;;5096549;27;20040;-77
2022/01/11 02:40:00;;;;;;;6.10;3.00;;;6.40;99.90;;;;;;5098693;27;20083;-77
2022/01/11 02:42:31;;;;;;;6.50;3.75;;;5.80;99.90;;;;;;5103325;27;20058;-77
2022/01/11 02:45:10;;;;;;;6.90;3.85;;;6.20;99.90;;;;;;5101657;27;20043;-77
2022/01/11 02:50:39;;;;;;;8.23;4.40;;;6.40;99.90;;;;;;5112554;27;20052;-77
2022/01/11 02:53:47;;;;;;;9.18;3.88;;;5.00;99.90;;;;;;5099836;27;20149;-77
2022/01/11 02:56:30;;;;;;;8.75;4.07;;;5.20;99.90;;;;;;5092582;27;20417;-77
2022/01/11 02:59:21;;;;;;;8.57;3.58;;;6.00;99.90;;;;;;5117875;27;20530;-77
2022/01/11 03:01:50;;;;;;;6.90;3.28;;;6.50;99.90;;;;;;5100275;27;20204;-78
2022/01/11 03:04:45;;;;;;;9.35;3.20;;;6.10;99.90;;;;;;5097917;27;20173;-78
2022/01/11 03:07:34;;;;;;;8.55;4.15;;;7.60;99.90;;;;;;5089444;27;20055;-77
2022/01/11 03:10:32;;;;;;;6.80;4.05;;;5.70;99.90;;;;;;5113092;27;20046;-77
2022/01/11 03:13:06;;;;;;;8.57;4.10;;;6.20;99.90;;;;;;5034344;28;20045;-77
2022/01/11 03:16:01;;;;;;;8.32;4.35;;;6.10;99.90;;;;;;5016909;28;20715;-77
2022/01/11 03:19:14;;;;;;;11.13;4.28;;;6.60;99.90;;;;;;5087138;27;20050;-77
2022/01/11 03:21:51;;;;;;;7.65;3.58;;;6.10;99.90;;;;;;5114151;27;20097;-77
2022/01/11 03:27:46;;;;;;;;;;;;;;;;;;;;;
2022/01/11 03:30:33;;;;;;;7.65;3.85;;;6.00;99.90;;;;;;5110409;27;41056;-78
2022/01/11 03:33:08;;;;;;;8.57;3.33;;;6.30;99.90;;;;;;5097619;27;20524;-77
2022/01/11 03:35:39;;;;;;;6.85;3.53;;;6.50;99.90;;;;;;5100002;27;20052;-77
2022/01/11 03:38:09;;;;;;;7.25;3.53;;;6.60;99.90;;;;;;5096739;27;20044;-77
2022/01/11 03:40:44;;;;;;;10.30;5.38;;;7.70;99.90;;;;;;5095535;27;20036;-77
2022/01/11 03:43:22;;;;;;;;;;;;;;;;;;;;;
2022/01/11 03:45:50;;;;;;;12.10;4.28;;;6.10;99.90;;;;;;5114233;27;41702;-77
2022/01/11 03:48:27;;;;;;;9.98;4.68;;;5.90;99.90;;;;;;5097002;27;20069;-78
2022/01/11 03:51:10;;;;;;;11.98;5.00;;;6.30;99.90;;;;;;5096767;27;20051;-77
2022/01/11 03:54:07;;;;;;;9.32;4.40;;;6.70;99.90;;;;;;5098370;27;20664;-77
2022/01/11 03:56:43;;;;;;;8.93;3.97;;;5.90;99.90;;;;;;5100103;27;20056;-78
2022/01/11 03:59:33;;;;;;;6.82;3.50;;;6.10;99.90;;;;;;5116494;27;20680;-78
2022/01/11 04:02:05;;;;;;;9.60;4.50;;;6.00;99.90;;;;;;5111314;27;20911;-77
2022/01/11 04:04:52;;;;;;;8.05;4.32;;;6.10;99.90;;;;;;5092109;27;20048;-78
2022/01/11 04:07:45;;;;;;;10.20;5.50;;;6.20;99.90;;;;;;5092229;27;20508;-77
2022/01/11 04:10:14;;;;;;;8.90;3.90;;;6.20;99.90;;;;;;5116521;27;20046;-77
2022/01/11 04:12:54;;;;;;;8.60;4.70;;;4.70;99.90;;;;;;5092466;27;20526;-77
2022/01/11 04:15:30;;;;;;;13.27;4.43;;;6.20;99.90;;;;;;5094155;27;20672;-77
2022/01/11 04:17:59;;;;;;;8.70;4.22;;;6.30;99.90;;;;;;5093292;27;20055;-77
2022/01/11 04:20:42;;;;;;;11.20;5.93;;;5.90;99.90;;;;;;5109079;27;20532;-77
2022/01/11 04:23:11;;;;;;;6.05;3.88;;;7.30;99.90;;;;;;5113990;27;20036;-77
2022/01/11 04:25:43;;;;;;;8.68;4.25;;;6.30;99.90;;;;;;5084679;27;20035;-77
2022/01/11 04:28:10;;;;;;;8.07;3.65;;;6.00;99.90;;;;;;5122846;27;20552;-77
2022/01/11 04:30:49;;;;;;;12.23;5.15;;;6.10;99.90;;;;;;5122736;27;20046;-76
2022/01/11 04:33:14;;;;;;;11.75;4.72;;;6.30;99.90;;;;;;5119744;27;20043;-76
2022/01/11 04:35:48;;;;;;;7.85;3.65;;;6.10;99.90;;;;;;5111388;27;20071;-77
2022/01/11 04:38:22;;;;;;;8.82;4.40;;;5.80;99.90;;;;;;5095083;27;20126;-77
2022/01/11 04:40:51;;;;;;;8.63;3.85;;;5.90;99.90;;;;;;5112648;27;20194;-76
2022/01/11 04:43:20;;;;;;;8.88;4.18;;;7.90;99.90;;;;;;5097465;27;20879;-76
2022/01/11 04:45:48;;;;;;;10.60;4.30;;;6.20;99.90;;;;;;5112593;27;20035;-76
2022/01/11 04:51:42;;;;;;;10.30;4.00;;;5.90;99.90;;;;;;5073022;27;20941;-76
2022/01/11 04:54:14;;;;;;;13.77;5.05;;;5.70;99.90;;;;;;5128413;27;20039;-76
2022/01/11 04:56:52;;;;;;;13.07;5.57;;;5.90;99.90;;;;;;5126168;27;20043;-77
2022/01/11 04:59:18;;;;;;;7.35;4.35;;;5.60;99.90;;;;;;5111676;27;20941;-77
2022/01/11 05:02:02;;;;;;;10.95;4.55;;;6.20;99.90;;;;;;5128246;27;20368;-77
2022/01/11 05:04:28;;;;;;;10.18;3.85;;;5.90;99.90;;;;;;5108270;27;20067;-78
2022/01/11 05:06:59;;;;;;;12.07;4.18;;;5.80;99.90;;;;;;5107668;27;20121;-76
2022/01/11 05:09:36;;;;;;;9.90;4.43;;;5.80;99.90;;;;;;5123281;27;20945;-77
2022/01/11 05:12:22;;;;;;;10.68;5.45;;;5.80;99.90;;;;;;5104310;27;20044;-77
2022/01/11 05:14:51;;;;;;;10.25;3.90;;;6.00;99.90;;;;;;5097708;27;20044;-78
2022/01/11 05:17:37;;;;;;;14.27;4.15;;;5.80;99.90;;;;;;5116911;27;20083;-77
2022/01/11 05:20:14;;;;;;;8.85;4.32;;;5.20;99.90;;;;;;5098825;27;20934;-77
2022/01/11 05:22:51;;;;;;;10.55;4.00;;;6.10;99.90;;;;;;5115370;27;20115;-77
2022/01/11 05:25:40;;;;;;;10.45;4.85;;;6.00;99.90;;;;;;5093679;27;20121;-77
2022/01/11 05:28:09;;;;;;;11.18;4.25;;;5.80;99.90;;;;;;5117555;27;20036;-77
2022/01/11 05:30:49;;;;;;;10.27;4.75;;;5.70;99.90;;;;;;5096122;27;20509;-77
2022/01/11 05:33:32;;;;;;;10.50;4.32;;;5.70;99.90;;;;;;5115948;27;20142;-77
2022/01/11 05:36:24;;;;;;;10.07;3.75;;;5.40;99.90;;;;;;5095973;27;20047;-77
2022/01/11 05:39:04;;;;;;;8.13;3.75;;;5.70;99.90;;;;;;5115590;27;20117;-78
2022/01/11 05:42:07;;;;;;;;;;;;;;;;;;;;;
2022/01/11 05:44:47;;;;;;;8.77;5.38;;;5.90;99.90;;;;;;5119352;27;43404;-77
2022/01/11 05:47:18;;;;;;;11.70;5.53;;;5.70;99.90;;;;;;5114762;27;20056;-78
2022/01/11 05:50:05;;;;;;;11.43;4.70;;;6.40;99.90;;;;;;5119139;27;20774;-78
2022/01/11 05:52:44;;;;;;;10.85;4.32;;;5.60;99.90;;;;;;5098239;27;20122;-77
2022/01/11 05:55:39;;;;;;;13.07;4.78;;;5.60;99.90;;;;;;5100019;27;20454;-76
2022/01/11 05:58:16;;;;;;;8.13;4.53;;;5.40;99.90;;;;;;5099697;27;20519;-77
2022/01/11 06:01:10;;;;;;;16.08;5.15;;;5.30;99.90;;;;;;5115667;27;20110;-78
2022/01/11 06:03:42;;;;;;;11.32;4.05;;;5.40;99.90;;;;;;5118163;27;20070;-77
2022/01/11 06:06:18;;;;;;;17.23;3.83;;;5.30;99.90;;;;;;5117317;27;20082;-76
2022/01/11 06:08:59;;;;;;;9.63;4.43;;;6.00;99.90;;;;;;5103995;27;20437;-78
2022/01/11 06:11:36;;;;;;;9.85;4.43;;;5.30;99.90;;;;;;5095827;27;20051;-77
2022/01/11 06:14:18;;;;;;;12.40;5.07;;;5.30;99.90;;;;;;5099906;27;20449;-78
2022/01/11 06:16:49;;;;;;;9.65;4.63;;;6.10;99.90;;;;;;5096830;27;20052;-78
2022/01/11 06:19:21;;;;;;;11.30;4.68;;;5.30;99.90;;;;;;5097317;27;20062;-77
2022/01/11 06:21:54;;;;;;;10.60;5.03;;;5.90;99.90;;;;;;5100845;27;20040;-78
2022/01/11 06:24:30;;;;;;;8.77;4.10;;;5.80;99.90;;;;;;5119237;27;20117;-79
2022/01/11 06:26:58;;;;;;;11.32;3.95;;;5.60;99.90;;;;;;5098581;27;20056;-76
2022/01/11 06:29:37;;;;;;;10.10;3.95;;;5.60;99.90;;;;;;5098766;27;20155;-82
2022/01/11 06:32:12;;;;;;;10.50;3.90;;;5.90;99.90;;;;;;5116045;27;20044;-81
2022/01/11 06:34:42;;;;;;;10.93;5.45;;;5.40;99.90;;;;;;5100750;27;20044;-79
2022/01/11 06:37:15;;;;;;;11.80;5.63;;;5.50;99.90;;;;;;5097070;27;20040;-77
2022/01/11 06:40:01;;;;;;;9.73;4.07;;;5.50;99.90;;;;;;5098406;27;20040;-78
2022/01/11 06:42:31;;;;;;;8.18;4.18;;;5.70;99.90;;;;;;5094084;27;20046;-78
2022/01/11 06:45:28;;;;;;;11.43;4.30;;;5.70;99.90;;;;;;5110327;27;20890;-77
2022/01/11 06:48:03;;;;;;;13.02;4.72;;;4.50;99.90;;;;;;5103266;27;20050;-78
2022/01/11 06:50:32;;;;;;;14.25;5.03;;;5.40;99.90;;;;;;5088359;27;20038;-77
2022/01/11 06:53:06;;;;;;;10.80;4.47;;;5.40;99.90;;;;;;5110865;27;20033;-77
2022/01/11 06:55:34;;;;;;;9.07;3.45;;;5.50;99.90;;;;;;5095344;27;20056;-77
2022/01/11 06:58:07;;;;;;;9.15;4.35;;;5.40;99.90;;;;;;5102726;27;20051;-78
2022/01/11 07:03:36;;;;;;;8.55;3.85;;;5.40;99.90;;;;;;5112423;27;20039;-77
2022/01/11 07:06:12;;;;;;;16.90;5.25;;;5.50;99.90;;;;;;5095569;27;20048;-76
2022/01/11 07:08:40;;;;;;;11.20;4.70;;;5.20;99.90;;;;;;5101448;27;20976;-79
2022/01/11 07:11:18;;;;;;;15.50;5.00;;;5.30;99.90;;;;;;5102227;27;20055;-77
2022/01/11 07:13:50;;;;;;;11.18;4.90;;;4.70;99.90;;;;;;5092640;27;20050;-78
2022/01/11 07:16:19;;;;;;;10.52;4.88;;;5.60;99.90;;;;;;5096411;27;20566;-79
2022/01/11 07:19:04;;;;;;;9.65;3.85;;;5.70;99.90;;;;;;5094495;27;20425;-78
2022/01/11 07:21:34;;;;;;;9.65;4.13;;;5.30;99.90;;;;;;5116128;27;20050;-79
2022/01/11 07:24:04;;;;;;;7.53;3.53;;;5.80;99.90;;;;;;5105471;27;20051;-78
2022/01/11 07:26:32;;;;;;;12.07;3.92;;;5.10;99.90;;;;;;5098915;27;20120;-78
2022/01/11 07:29:03;;;;;;;7.43;4.10;;;5.10;99.90;;;;;;5093735;27;20125;-78
2022/01/11 07:31:36;;;;;;;9.00;4.63;;;5.20;99.90;;;;;;5101710;27;20436;-78
2022/01/11 07:34:21;;;;;;;7.95;3.20;;;5.60;99.90;;;;;;5112963;27;20575;-78
2022/01/11 07:36:59;;;;;;;10.25;3.78;;;5.10;99.90;;;;;;5099191;27;20054;-77
2022/01/11 07:39:29;;;;;;;9.68;4.38;;;5.30;99.90;;;;;;5098286;27;20074;-79
2022/01/11 07:42:01;;;;;;;12.25;5.20;;;5.10;99.90;;;;;;5098520;27;20110;-78
2022/01/11 07:44:32;;;;;;;7.32;4.95;;;5.30;99.90;;;;;;5107304;27;20711;-78
2022/01/11 07:47:17;;;;;;;8.35;4.15;;;4.40;99.90;;;;;;5108787;27;20051;-78
2022/01/11 07:49:49;;;;;;;8.63;4.18;;;4.60;99.90;;;;;;5113309;27;20050;-78
2022/01/11 07:52:16;;;;;;;;;;;5.30;99.90;;;;;;5098201;27;20995;-78
2022/01/11 07:54:41;;;;;;;8.68;3.40;;;5.20;99.90;;;;;;5098159;27;19926;-78
2022/01/11 07:57:23;;;;;;;9.57;4.10;;;5.30;99.90;;;;;;5116419;27;20043;-78
2022/01/11 07:59:55;;;;;;;11.48;4.60;;;4.60;99.90;;;;;;5094590;27;20051;-77
2022/01/11 08:02:24;;;;;;;10.27;4.50;;;5.20;99.90;;;;;;5095672;27;20047;-78
2022/01/11 08:04:58;;;;;;;12.70;4.80;;;5.30;99.90;;;;;;5093828;27;20098;-77
2022/01/11 08:07:26;;;;;;;13.60;5.68;;;5.00;99.90;;;;;;5096431;27;20049;-78
2022/01/11 08:10:01;;;;;;;12.43;4.80;;;5.20;99.90;;;;;;5115162;27;20263;-78
2022/01/11 08:12:47;;;;;;;11.98;4.47;;;5.30;99.90;;;;;;5098574;27;20040;-78
2022/01/11 08:15:19;;;;;;;10.82;4.30;;;5.20;99.90;;;;;;5101065;27;20060;-77
2022/01/11 08:17:46;;;;;;;10.50;4.25;;;5.60;99.90;;;;;;5117315;27;20502;-78
2022/01/11 08:20:19;;;;;;;9.50;4.78;;;5.20;99.90;;;;;;5097087;27;20043;-79
2022/01/11 08:22:55;;;;;;;11.18;5.22;;;5.30;99.90;;;;;;5098861;27;20122;-79
2022/01/11 08:25:21;;;;;;;10.80;4.00;;;6.90;99.90;;;;;;5098010;27;20032;-78
2022/01/11 08:28:13;;;;;;;14.68;4.78;;;5.50;99.90;;;;;;5092985;27;20052;-78
2022/01/11 08:30:49;;;;;;;10.18;4.70;;;5.80;99.90;;;;;;5100200;27;20048;-78
2022/01/11 08:36:32;;;;;;;12.25;4.70;;;6.00;99.90;;;;;;5114250;27;20062;-78
2022/01/11 08:39:04;;;;;;;12.40;6.25;;;5.70;99.90;;;;;;5118373;27;20040;-78
2022/01/11 08:44:24;;;;;;;9.68;4.25;;;5.70;99.90;;;;;;5116824;27;20044;-78
2022/01/11 08:46:55;;;;;;;8.00;3.90;;;5.40;99.90;;;;;;5107344;27;20461;-78
2022/01/11 08:49:30;;;;;;;9.57;4.60;;;5.40;99.90;;;;;;5118710;27;20044;-78
2022/01/11 08:52:05;;;;;;;12.75;4.55;;;6.60;99.90;;;;;;5105164;27;20599;-78
2022/01/11 08:54:39;;;;;;;12.35;5.00;;;5.10;99.90;;;;;;5103053;27;20044;-78
2022/01/11 08:57:05;;;;;;;9.15;4.30;;;5.40;99.90;;;;;;5119419;27;20036;-78
2022/01/11 08:59:35;;;;;;;10.77;4.60;;;5.30;99.90;;;;;;5100011;27;20074;-78
2022/01/11 09:02:14;;;;;;;;;;;;;;;;;;;;;
2022/01/11 09:05:08;;;;;;;7.43;3.70;;;5.40;99.90;;;;;;5116215;27;39469;-77
2022/01/11 09:07:40;;;;;;;7.97;3.47;;;6.30;99.90;;;;;;5103934;27;20507;-78
2022/01/11 09:10:07;;;;;;;9.77;3.90;;;6.50;99.90;;;;;;5099873;27;20047;-78
2022/01/11 09:12:46;;;;;;;10.90;3.78;;;5.50;99.90;;;;;;5117851;27;20056;-78
2022/01/11 09:15:15;;;;;;;9.73;4.07;;;5.50;99.90;;;;;;5083268;27;20191;-79
2022/01/11 09:18:04;;;;;;;8.32;3.30;;;6.40;99.90;;;;;;5096951;27;20089;-78
2022/01/11 09:20:36;;;;;;;8.77;3.53;;;6.30;99.90;;;;;;5095193;27;20570;-77
2022/01/11 09:23:11;;;;;;;10.63;4.35;;;5.70;99.90;;;;;;5108935;27;20104;-78
2022/01/11 09:25:45;;;;;;;8.40;3.47;;;5.50;99.90;;;;;;5110574;27;20048;-77
2022/01/11 09:28:26;;;;;;;11.68;4.10;;;6.10;99.90;;;;;;5105453;27;20547;-78
2022/01/11 09:30:57;;;;;;;6.18;3.30;;;5.50;99.90;;;;;;5102092;27;20071;-78
2022/01/11 09:33:32;;;;;;;11.77;4.53;;;5.50;99.90;;;;;;5109576;27;20028;-78
2022/01/11 09:36:06;;;;;;;7.75;3.67;;;5.50;99.90;;;;;;5091113;27;20043;-78
2022/01/11 09:38:43;;;;;;;5.85;3.40;;;5.70;99.90;;;;;;5107271;27;20096;-78
2022/01/11 09:41:17;;;;;;;5.40;3.35;;;5.80;99.90;;;;;;5096439;27;20043;-78
2022/01/11 09:43:51;;;;;;;10.90;3.22;;;5.90;99.90;;;;;;5118997;27;20173;-78
2022/01/11 09:46:23;;;;;;;8.20;3.78;;;5.40;99.90;;;;;;5101235;27;20163;-78
2022/01/11 09:48:52;;;;;;;9.50;2.85;;;5.60;99.90;;;;;;5103513;27;20054;-77
2022/01/11 09:51:21;;;;;;;9.18;4.40;;;5.60;99.90;;;;;;5104352;27;20112;-78
2022/01/11 09:53:52;;;;;;;6.07;2.88;;;5.00;99.90;;;;;;5114102;27;20597;-78
2022/01/11 09:56:21;;;;;;;4.88;2.47;;;6.00;99.90;;;;;;5096912;27;20712;-78
2022/01/11 09:58:50;;;;;;;7.50;2.83;;;5.50;99.90;;;;;;5117373;27;20870;-78
2022/01/11 10:01:29;;;;;;;;;;;;;;;;;;;;;
2022/01/11 10:04:16;;;;;;;7.13;3.10;;;5.90;99.90;;;;;;5114579;27;44091;-78
2022/01/11 10:06:59;;;;;;;7.88;3.38;;;6.90;99.90;;;;;;5099706;27;20048;-78
2022/01/11 10:09:36;;;;;;;7.55;2.88;;;5.70;99.90;;;;;;5098223;27;20039;-78
2022/01/11 10:12:18;;;;;;;7.45;3.15;;;6.70;99.90;;;;;;5102439;27;20067;-77
2022/01/11 10:15:00;;;;;;;11.93;2.55;;;5.70;99.90;;;;;;5096311;27;20043;-78
2022/01/11 10:17:41;;;;;;;6.25;3.08;;;5.80;99.90;;;;;;5115339;27;20682;-78
2022/01/11 10:20:56;;;;;;;3.05;1.95;;;5.00;99.90;;;;;;5097389;27;20062;-78
2022/01/11 10:23:37;;;;;;;5.47;3.17;;;5.70;99.90;;;;;;5081746;27;20039;-78
2022/01/11 10:26:08;;;;;;;14.40;3.58;;;4.60;99.90;;;;;;5103062;27;20051;-78
2022/01/11 10:28:39;;;;;;;8.23;3.05;;;5.70;99.90;;;;;;5118220;27;20048;-79
2022/01/11 10:31:08;;;;;;;8.88;2.83;;;6.10;99.90;;;;;;5119852;27;20040;-78
2022/01/11 10:33:44;;;;;;;6.68;3.20;;;4.40;99.90;;;;;;5104001;27;20500;-78
2022/01/11 10:36:26;;;;;;;5.75;2.90;;;6.00;99.90;;;;;;5104888;27;20059;-77
2022/01/11 10:38:51;;;;;;;8.67;2.80;;;6.10;99.90;;;;;;5103210;27;20575;-78
2022/01/11 10:41:43;;;;;;;3.50;2.22;;;6.90;99.90;;;;;;5098068;27;20266;-77
2022/01/11 10:44:09;;;;;;;7.68;2.63;;;5.90;99.90;;;;;;5101684;27;20240;-77
2022/01/11 10:46:44;;;;;;;7.55;3.03;;;5.90;99.90;;;;;;5099119;27;20043;-77
2022/01/11 10:49:09;;;;;;;5.32;2.45;;;5.90;99.90;;;;;;5103247;27;20097;-78
2022/01/11 10:51:35;;;;;;;6.13;2.55;;;5.90;99.90;;;;;;5101492;27;20043;-78
2022/01/11 10:54:01;;;;;;;5.50;2.25;;;6.00;99.90;;;;;;5115971;27;20043;-78
2022/01/11 10:56:40;;;;;;;8.05;3.33;;;6.00;99.90;;;;;;5116869;27;20071;-78
2022/01/11 10:59:09;;;;;;;5.20;2.90;;;6.00;99.90;;;;;;5105153;27;20039;-78
2022/01/11 11:01:38;;;;;;;9.50;3.63;;;6.10;99.90;;;;;;5112537;27;20075;-78
2022/01/11 11:04:03;;;;;;;5.90;3.30;;;6.00;99.90;;;;;;5119183;27;20408;-77
2022/01/11 11:06:29;;;;;;;10.02;2.67;;;6.00;99.90;;;;;;5120900;27;20070;-77
2022/01/11 11:08:55;;;;;;;5.97;2.67;;;5.70;99.90;;;;;;5121643;27;20531;-77
2022/01/11 11:11:23;;;;;;;5.65;2.38;;;6.00;99.90;;;;;;5095303;27;20047;-78
2022/01/11 11:13:51;;;;;;;5.57;2.42;;;6.30;99.90;;;;;;5124635;27;20043;-77
2022/01/11 11:16:27;;;;;;;6.60;3.15;;;6.10;99.90;;;;;;5126270;27;20032;-77
2022/01/11 11:18:58;;;;;;;5.47;2.33;;;6.10;99.90;;;;;;5099632;27;20132;-78
2022/01/11 11:21:25;;;;;;;9.70;3.05;;;6.20;99.90;;;;;;5117093;27;20031;-74
2022/01/11 11:24:01;;;;;;;6.03;2.75;;;6.20;99.90;;;;;;5101938;27;20048;-82
2022/01/11 11:26:32;;;;;;;5.97;2.80;;;6.00;99.90;;;;;;5105526;27;20064;-82
2022/01/11 11:28:58;;;;;;;4.43;2.15;;;6.10;99.90;;;;;;5102713;27;20044;-82
2022/01/11 11:31:27;;;;;;;5.60;2.67;;;6.00;99.90;;;;;;5100143;27;20040;-82
2022/01/11 11:33:53;;;;;;;7.57;3.33;;;6.10;99.90;;;;;;5101528;27;20144;-82
2022/01/11 11:36:19;;;;;;;4.75;2.67;;;5.90;99.90;;;;;;5103233;27;20040;-83
2022/01/11 11:38:57;;;;;;;6.80;2.92;;;6.00;99.90;;;;;;5101727;27;20513;-82
2022/01/11 11:41:27;;;;;;;8.43;2.72;;;6.00;99.90;;;;;;5119797;27;20104;-83
2022/01/11 11:44:12;;;;;;;7.75;2.75;;;7.20;99.90;;;;;;5106746;27;20063;-82
2022/01/11 11:46:47;;;;;;;6.72;2.63;;;5.00;99.90;;;;;;5100062;27;20062;-83
2022/01/11 11:49:15;;;;;;;7.20;3.55;;;5.70;99.90;;;;;;5115591;27;20039;-83
2022/01/11 11:51:42;;;;;;;6.10;2.80;;;6.30;99.90;;;;;;5116363;27;20097;-83
2022/01/11 11:54:16;;;;;;;5.82;2.60;;;6.20;99.90;;;;;;5116490;27;20039;-83
2022/01/11 11:57:02;;;;;;;6.65;3.40;;;6.20;99.90;;;;;;5110720;27;20039;-82
2022/01/11 11:59:28;;;;;;;6.47;2.85;;;6.20;99.90;;;;;;5134432;27;20036;-82
2022/01/11 12:01:58;;;;;;;7.20;3.00;;;6.40;99.90;;;;;;5130234;27;20040;-83
2022/01/11 12:04:33;;;;;;;5.13;2.67;;;6.60;99.90;;;;;;5111171;27;20042;-81
2022/01/11 12:07:40;;;;;;;9.18;3.13;;;6.30;99.90;;;;;;5136591;27;20040;-82
2022/01/11 12:10:26;;;;;;;8.50;3.33;;;6.30;99.90;;;;;;5119375;27;20044;-81
2022/01/11 12:12:59;;;;;;;5.57;3.00;;;6.40;99.90;;;;;;5141544;27;20031;-82
2022/01/11 12:15:32;;;;;;;7.60;3.13;;;6.40;99.90;;;;;;5138177;27;20059;-82
2022/01/11 12:18:07;;;;;;;8.07;3.05;;;6.50;99.90;;;;;;5135895;27;20052;-82
2022/01/11 12:20:58;;;;;;;6.35;2.95;;;6.40;99.90;;;;;;5122204;27;20102;-82
2022/01/11 12:23:36;;;;;;;8.98;3.92;;;6.40;99.90;;;;;;5105213;27;20085;-82
2022/01/11 12:26:16;;;;;;;7.10;3.05;;;6.30;99.90;;;;;;5122156;27;20040;-82
2022/01/11 12:29:08;;;;;;;5.85;2.88;;;7.60;99.90;;;;;;5113209;27;20036;-82
2022/01/11 12:32:03;;;;;;;6.93;2.90;;;7.00;99.90;;;;;;5106417;27;20032;-82
2022/01/11 12:34:50;;;;;;;7.13;2.83;;;6.40;99.90;;;;;;5125789;27;20046;-83
2022/01/11 12:37:34;;;;;;;7.32;2.67;;;5.40;99.90;;;;;;5118793;27;20455;-83
2022/01/11 12:40:12;;;;;;;4.10;2.80;;;6.30;99.90;;;;;;5122277;27;20039;-82
2022/01/11 12:43:06;;;;;;;14.88;3.72;;;6.30;99.90;;;;;;5100891;27;20563;-82
2022/01/11 12:46:03;;;;;;;4.38;2.17;;;6.70;99.90;;;;;;5119342;27;20060;-82
2022/01/11 12:48:49;;;;;;;8.77;2.75;;;7.30;99.90;;;;;;5105796;27;20142;-83
2022/01/11 12:51:27;;;;;;;8.55;3.55;;;5.40;99.90;;;;;;5120436;27;20122;-83
2022/01/11 12:54:11;;;;;;;7.93;2.85;;;6.30;99.90;;;;;;5117134;27;20320;-80
2022/01/11 12:56:37;;;;;;;7.32;2.65;;;5.60;99.90;;;;;;5117747;27;20043;-80
2022/01/11 12:59:11;;;;;;;7.53;3.05;;;5.50;99.90;;;;;;5096517;27;20043;-81
2022/01/11 13:01:44;;;;;;;7.85;3.40;;;6.40;99.90;;;;;;5101041;27;20090;-81
2022/01/11 13:04:11;;;;;;;7.93;3.33;;;7.80;99.90;;;;;;5105733;27;20732;-80
2022/01/11 13:06:40;;;;;;;8.20;3.45;;;6.40;99.90;;;;;;5116273;27;20122;-81
2022/01/11 13:09:24;;;;;;;10.10;4.13;;;6.50;99.90;;;;;;5118299;27;20126;-81
2022/01/11 13:11:54;;;;;;;10.27;3.40;;;5.40;99.90;;;;;;5102403;27;20127;-81
2022/01/11 13:14:32;;;;;;;9.27;3.80;;;6.60;99.90;;;;;;5094216;27;20036;-81
2022/01/11 13:17:02;;;;;;;7.53;4.00;;;6.70;99.90;;;;;;5097312;27;20312;-80
2022/01/11 13:19:40;;;;;;;7.38;3.67;;;6.70;99.90;;;;;;5115480;27;20413;-81
2022/01/11 13:22:14;;;;;;;6.05;3.40;;;6.60;99.90;;;;;;5102320;27;20043;-82
2022/01/11 13:25:32;;;;;;;8.18;3.22;;;6.60;99.90;;;;;;5105659;27;20047;-82
2022/01/11 13:28:10;;;;;;;9.02;3.60;;;6.40;99.90;;;;;;5114441;27;20043;-81
2022/01/11 13:30:39;;;;;;;11.15;4.25;;;6.40;99.90;;;;;;5102381;27;20044;-81
2022/01/11 13:33:30;;;;;;;8.05;3.03;;;6.40;99.90;;;;;;5103685;27;20044;-81
2022/01/11 13:36:35;;;;;;;8.10;3.78;;;6.60;99.90;;;;;;5107753;27;20036;-81
2022/01/11 13:39:05;;;;;;;10.40;4.05;;;6.20;99.90;;;;;;5067080;27;21042;-81
2022/01/11 13:41:47;;;;;;;11.65;4.15;;;6.50;99.90;;;;;;5101492;27;20039;-80
2022/01/11 13:44:17;;;;;;;11.47;5.13;;;6.50;99.90;;;;;;5096485;27;20059;-81
2022/01/11 13:46:55;;;;;;;9.00;3.88;;;6.40;99.90;;;;;;5105522;27;20036;-80
2022/01/11 13:49:28;;;;;;;10.82;3.95;;;6.30;99.90;;;;;;5117817;27;20040;-81
2022/01/11 13:52:16;;;;;;;8.60;3.30;;;5.90;99.90;;;;;;5099009;27;20070;-81
2022/01/11 13:54:47;;;;;;;9.07;4.05;;;6.20;99.90;;;;;;5100130;27;20043;-81
2022/01/11 13:57:17;;;;;;;9.93;3.55;;;6.20;99.90;;;;;;5101612;27;20612;-81
2022/01/11 13:59:53;;;;;;;11.27;4.22;;;6.30;99.90;;;;;;5104293;27;20047;-80
2022/01/11 14:02:20;;;;;;;7.85;3.67;;;6.20;99.90;;;;;;5101717;27;21083;-81
2022/01/11 14:04:53;;;;;;;7.60;3.60;;;6.40;99.90;;;;;;5104816;27;20036;-82
2022/01/11 14:07:20;;;;;;;;;;;6.30;99.90;;;;;;5118712;27;20935;-81
2022/01/11 14:09:51;;;;;;;7.78;3.17;;;6.20;99.90;;;;;;5107077;27;19969;-81
2022/01/11 14:12:30;;;;;;;4.17;2.33;;;6.30;99.90;;;;;;5105431;27;20044;-81
2022/01/11 14:15:00;;;;;;;8.13;3.13;;;6.00;99.90;;;;;;5103666;27;20496;-81
2022/01/11 14:17:34;;;;;;;7.30;2.80;;;6.30;99.90;;;;;;5122064;27;20093;-81
2022/01/11 14:20:08;;;;;;;6.18;3.08;;;6.10;99.90;;;;;;5105018;27;20443;-81